createdAt,value
2022-08-03T00:03:50.100Z,16.06
2022-08-03T00:08:50.104Z,16.18
2022-08-03T00:13:50.073Z,16.12
2022-08-03T00:18:50.061Z,16.12
2022-08-03T00:23:51.029Z,16
2022-08-03T00:28:50.060Z,16
2022-08-03T00:33:57.855Z,16
2022-08-03T00:38:50.033Z,16
2022-08-03T00:43:50.039Z,15.81
2022-08-03T00:48:50.047Z,15.81
2022-08-03T00:53:50.032Z,15.87
2022-08-03T00:58:50.014Z,15.81
2022-08-03T01:03:50.039Z,15.68
2022-08-03T01:08:50.008Z,15.68
2022-08-03T01:14:00.264Z,15.75
2022-08-03T01:18:49.988Z,15.68
2022-08-03T01:23:49.991Z,15.68
2022-08-03T01:28:49.990Z,15.43
2022-08-03T01:33:49.986Z,15.43
2022-08-03T01:38:49.973Z,15.31
2022-08-03T01:43:55.012Z,15.25
2022-08-03T01:48:49.953Z,15.12
2022-08-03T01:53:49.958Z,15.12
2022-08-03T01:58:49.971Z,15.18
2022-08-03T02:03:59.638Z,15.06
2022-08-03T02:08:49.938Z,14.87
2022-08-03T02:13:49.922Z,14.75
2022-08-03T02:18:49.913Z,14.81
2022-08-03T02:23:49.917Z,14.68
2022-08-03T02:28:49.895Z,14.68
2022-08-03T02:33:49.903Z,14.62
2022-08-03T02:38:49.889Z,14.93
2022-08-03T02:44:05.464Z,14.81
2022-08-03T02:53:49.865Z,14.62
2022-08-03T03:18:49.858Z,15.25
2022-08-03T03:23:49.828Z,15.56
2022-08-03T03:38:49.818Z,15.62
2022-08-03T03:43:49.816Z,15.56
2022-08-03T03:48:49.798Z,15.62
2022-08-03T03:53:49.808Z,15.75
2022-08-03T03:58:49.789Z,15.68
2022-08-03T04:03:49.792Z,15.81
2022-08-03T04:08:49.771Z,15.81
2022-08-03T04:13:49.782Z,15.81
2022-08-03T04:18:49.782Z,16.12
2022-08-03T04:23:49.758Z,16.18
2022-08-03T04:28:49.750Z,16.31
2022-08-03T04:33:49.774Z,16.37
2022-08-03T04:38:49.738Z,16.68
2022-08-03T04:43:49.738Z,16.68
2022-08-03T04:48:49.734Z,16.75
2022-08-03T04:53:49.738Z,16.93
2022-08-03T04:58:49.720Z,16.93
2022-08-03T05:03:49.706Z,17.12
2022-08-03T05:08:50.828Z,17.43
2022-08-03T05:13:49.721Z,17.68
2022-08-03T05:18:49.702Z,18
2022-08-03T05:23:49.682Z,18.25
2022-08-03T05:28:51.140Z,19.5
2022-08-03T05:33:49.709Z,24.93
2022-08-03T05:38:49.660Z,25.93
2022-08-03T05:43:49.681Z,25.62
2022-08-03T05:48:49.683Z,25.56
2022-08-03T05:53:49.667Z,26.5
2022-08-03T05:58:49.646Z,26.06
2022-08-03T06:03:49.624Z,26.81
2022-08-03T06:08:49.624Z,25.75
2022-08-03T06:13:49.628Z,26.25
2022-08-03T06:18:49.619Z,26.25
2022-08-03T06:23:53.710Z,27.25
2022-08-03T06:28:52.059Z,27.75
2022-08-03T06:34:31.677Z,27.18
2022-08-03T06:38:49.590Z,27.37
2022-08-03T06:44:02.863Z,28.06
2022-08-03T06:48:49.609Z,28.25
2022-08-03T06:53:49.569Z,28.43
2022-08-03T06:58:49.561Z,28.75
2022-08-03T07:03:52.426Z,28.43
2022-08-03T07:08:52.372Z,28.87
2022-08-03T07:13:49.551Z,29.06
2022-08-03T07:18:49.563Z,29.06
2022-08-03T07:23:49.523Z,29.62
2022-08-03T07:28:49.534Z,28.87
2022-08-03T07:33:49.539Z,29.37
2022-08-03T07:38:49.504Z,29
2022-08-03T07:43:49.504Z,29.56
2022-08-03T07:48:49.504Z,28.37
2022-08-03T07:53:49.485Z,25.81
2022-08-03T07:58:49.478Z,25.68
2022-08-03T08:03:52.503Z,25.62
2022-08-03T08:08:49.470Z,25.12
2022-08-03T08:13:49.454Z,24.87
2022-08-03T08:18:49.462Z,25.12
2022-08-03T08:23:55.625Z,25.5
2022-08-03T08:28:49.440Z,25.37
2022-08-03T08:34:03.426Z,25.43
2022-08-03T08:38:49.419Z,26.06
2022-08-03T08:43:49.429Z,26.31
2022-08-03T08:48:49.415Z,25.62
2022-08-03T08:53:49.409Z,25.62
2022-08-03T08:58:49.399Z,26.12
2022-08-03T09:03:49.406Z,26
2022-08-03T09:08:49.386Z,26.12
2022-08-03T09:13:49.403Z,26.43
2022-08-03T09:18:49.401Z,27.18
2022-08-03T09:24:01.857Z,26.37
2022-08-03T09:28:54.004Z,26.87
2022-08-03T09:33:49.366Z,26.87
2022-08-03T09:38:50.296Z,26.81
2022-08-03T09:43:49.355Z,26.75
2022-08-03T09:48:49.334Z,27.06
2022-08-03T09:53:49.600Z,27.25
2022-08-03T09:58:49.328Z,27.12
2022-08-03T10:04:03.678Z,27.25
2022-08-03T10:08:49.345Z,27
2022-08-03T10:13:49.310Z,27.37
2022-08-03T10:18:49.297Z,27.81
2022-08-03T10:23:49.288Z,28.18
2022-08-03T10:28:49.283Z,28
2022-08-03T10:33:52.738Z,27.31
2022-08-03T10:38:49.264Z,27.93
2022-08-03T10:43:49.285Z,27.93
2022-08-03T10:48:49.251Z,28.31
2022-08-03T10:53:54.416Z,28.31
2022-08-03T10:58:53.619Z,28.06
2022-08-03T11:03:49.241Z,28.43
2022-08-03T11:08:49.231Z,28.31
2022-08-03T11:13:49.243Z,28.31
2022-08-03T11:18:49.225Z,28.75
2022-08-03T11:24:03.746Z,28.31
2022-08-03T11:28:49.205Z,28.43
2022-08-03T11:33:49.218Z,29
2022-08-03T11:38:49.195Z,28.68
2022-08-03T11:43:49.193Z,29.43
2022-08-03T11:53:49.177Z,29.18
2022-08-03T11:59:00.547Z,29.93
2022-08-03T12:03:49.170Z,29.06
2022-08-03T12:13:57.076Z,29.68
2022-08-03T12:23:49.142Z,28.87
2022-08-03T12:28:49.831Z,29.31
2022-08-03T12:38:49.122Z,29.06
2022-08-03T12:43:49.118Z,29.62
2022-08-03T12:48:49.103Z,29.68
2022-08-03T12:53:49.113Z,30.43
2022-08-03T12:58:49.101Z,29.68
2022-08-03T13:03:50.066Z,30.06
2022-08-03T13:08:49.099Z,29.81
2022-08-03T13:13:49.077Z,29.62
2022-08-03T13:18:49.070Z,29.68
2022-08-03T13:23:49.056Z,29.68
2022-08-03T13:28:49.069Z,29.56
2022-08-03T13:33:49.068Z,29.87
2022-08-03T13:38:49.058Z,29.43
2022-08-03T13:43:57.507Z,30.12
2022-08-03T13:48:49.036Z,30
2022-08-03T13:53:49.052Z,29.75
2022-08-03T13:58:49.022Z,30.12
2022-08-03T14:03:49.025Z,29.75
2022-08-03T14:08:49.018Z,30
2022-08-03T14:13:49.006Z,30.12
2022-08-03T14:18:48.988Z,29.68
2022-08-03T14:23:49.004Z,30
2022-08-03T14:28:48.975Z,29.62
2022-08-03T14:33:48.981Z,30.18
2022-08-03T14:38:49.171Z,30.31
2022-08-03T14:44:00.667Z,29.93
2022-08-03T14:50:10.679Z,29.81
2022-08-03T14:53:48.957Z,29.68
2022-08-03T14:58:48.958Z,29.93
2022-08-03T15:03:48.934Z,29.87
2022-08-03T15:09:06.203Z,29.68
2022-08-03T15:13:48.925Z,29.81
2022-08-03T15:18:48.933Z,29.68
2022-08-03T15:23:48.915Z,29.93
2022-08-03T15:28:48.912Z,29.87
2022-08-03T15:33:48.905Z,30
2022-08-03T15:38:49.035Z,30
2022-08-03T15:43:48.898Z,29.81
2022-08-03T15:48:48.874Z,29.75
2022-08-03T15:53:48.888Z,29.87
2022-08-03T15:58:59.116Z,29.68
2022-08-03T16:03:48.869Z,29.5
2022-08-03T16:08:48.854Z,29.68
2022-08-03T16:14:04.839Z,29.5
2022-08-03T16:18:48.858Z,29.31
2022-08-03T16:23:48.863Z,29.31
2022-08-03T16:28:48.831Z,29.5
2022-08-03T16:33:48.843Z,29.5
2022-08-03T16:38:48.826Z,29.18
2022-08-03T16:43:48.818Z,29.12
2022-08-03T16:48:48.798Z,29.31
2022-08-03T16:54:05.692Z,29.18
2022-08-03T16:58:48.788Z,29.06
2022-08-03T17:03:57.111Z,29
2022-08-03T17:08:52.308Z,28.93
2022-08-03T17:13:48.772Z,28.75
2022-08-03T17:18:48.765Z,28.75
2022-08-03T17:23:48.759Z,28.62
2022-08-03T17:28:56.293Z,28.56
2022-08-03T17:33:54.540Z,28.37
2022-08-03T17:38:48.749Z,28.31
2022-08-03T17:44:14.808Z,28.06
2022-08-03T17:48:48.737Z,27.87
2022-08-03T17:58:52.319Z,27.5
2022-08-03T18:03:58.217Z,27.31
2022-08-03T18:18:48.721Z,26.68
2022-08-03T18:23:50.071Z,26.56
2022-08-03T18:28:48.680Z,26.37
2022-08-03T18:34:16.101Z,26.18
2022-08-03T18:38:49.127Z,25.93
2022-08-03T18:44:07.396Z,25.68
2022-08-03T18:48:48.682Z,25.5
2022-08-03T18:58:51.550Z,25
2022-08-03T19:03:48.670Z,24.68
2022-08-03T19:08:48.616Z,24.18
2022-08-03T19:13:50.127Z,23.81
2022-08-03T19:18:48.644Z,23.12
2022-08-03T19:23:48.604Z,23
2022-08-03T19:28:48.593Z,22.68
2022-08-03T19:33:56.221Z,23.12
2022-08-03T19:38:48.595Z,23.37
2022-08-03T19:43:49.700Z,22.81
2022-08-03T19:48:48.595Z,23.5
2022-08-03T19:53:48.568Z,23.31
2022-08-03T19:58:53.203Z,22.87
2022-08-03T20:03:48.550Z,22.18
2022-08-03T20:08:51.683Z,22.12
2022-08-03T20:13:48.542Z,22.06
2022-08-03T20:18:48.545Z,21.68
2022-08-03T20:24:02.131Z,21.56
2022-08-03T20:28:49.926Z,21.56
2022-08-03T20:33:49.225Z,21.31
2022-08-03T20:38:48.715Z,21.25
2022-08-03T20:43:49.221Z,21.12
2022-08-03T20:48:48.834Z,21.12
2022-08-03T20:53:49.232Z,20.93
2022-08-03T20:58:50.404Z,20.81
2022-08-03T21:03:52.293Z,20.68
2022-08-03T21:08:48.511Z,20.56
2022-08-03T21:13:06.282Z,25.37
2022-08-03T21:13:48.524Z,20.56
2022-08-03T21:18:48.491Z,20.62
2022-08-03T21:23:49.583Z,20.56
2022-08-03T21:28:48.495Z,20.5
2022-08-03T21:33:48.488Z,20.37
2022-08-03T21:38:56.054Z,20.18
2022-08-03T21:43:48.464Z,20.06
2022-08-03T21:48:48.445Z,20
2022-08-03T21:53:59.597Z,19.87
2022-08-03T21:58:50.954Z,19.62
2022-08-03T22:13:48.457Z,19.56
2022-08-03T22:18:48.374Z,19.68
2022-08-03T22:23:48.370Z,19.5
2022-08-03T22:28:48.356Z,19.5
2022-08-03T22:33:48.366Z,19.31
2022-08-03T22:38:48.359Z,19.06
2022-08-03T22:43:48.339Z,19
2022-08-03T22:48:48.327Z,18.87
2022-08-03T22:53:48.321Z,18.87
2022-08-03T22:58:48.321Z,18.87
2022-08-03T23:03:59.368Z,18.75
2022-08-03T23:08:48.325Z,18.68
2022-08-03T23:13:48.294Z,18.68
2022-08-03T23:18:48.287Z,18.68
2022-08-03T23:23:48.290Z,18.56
2022-08-03T23:28:48.278Z,18.5
2022-08-03T23:33:48.264Z,18.12
2022-08-03T23:38:48.302Z,18.06
2022-08-03T23:43:52.530Z,18
2022-08-03T23:48:48.253Z,18.06
2022-08-03T23:53:48.246Z,17.87
2022-08-03T23:58:48.245Z,17.75
